Time;durP1;ratioP1;P1;durP2;ratioP2;P2;SDS_P1;SDS_P2;PMS_P1;PMS_P2;Temp;Humidity;BMP_temperature;BMP_pressure;BME280_temperature;BME280_humidity;BME280_pressure;Samples;Min_cycle;Max_cycle;Signal;HPM_P1;HPM_P2
2022/12/20 00:01:47;;;;;;;25.87;19.77;;;4.10;1.00;;;;;;6216686;28;20246;-52
2022/12/20 00:04:51;;;;;;;26.50;18.90;;;4.20;1.00;;;;;;6247326;28;20253;-52
2022/12/20 00:07:54;;;;;;;26.27;19.70;;;4.00;1.00;;;;;;6250649;28;20246;-53
2022/12/20 00:10:59;;;;;;;25.83;19.10;;;4.10;1.00;;;;;;6256173;28;20238;-53
2022/12/20 00:14:03;;;;;;;24.40;17.67;;;4.10;1.00;;;;;;6256698;28;20237;-52
2022/12/20 00:17:06;;;;;;;28.00;18.90;;;4.30;1.00;;;;;;6236358;28;20302;-51
2022/12/20 00:20:10;;;;;;;24.10;18.57;;;4.50;1.00;;;;;;6236558;28;20423;-53
2022/12/20 00:23:13;;;;;;;24.87;17.93;;;4.10;1.00;;;;;;6231658;28;20246;-52
2022/12/20 00:26:20;;;;;;;23.67;17.83;;;4.30;1.00;;;;;;6249167;28;20736;-52
2022/12/20 00:29:24;;;;;;;26.60;19.00;;;4.10;1.00;;;;;;6255192;28;20245;-54
2022/12/20 00:32:27;;;;;;;24.70;18.27;;;4.30;1.00;;;;;;6249622;28;20230;-53
2022/12/20 00:35:30;;;;;;;25.27;18.80;;;4.40;1.00;;;;;;6256049;28;20244;-54
2022/12/20 00:38:35;;;;;;;26.90;19.53;;;4.40;1.00;;;;;;6256168;28;20233;-53
2022/12/20 00:41:38;;;;;;;27.30;19.83;;;4.40;1.00;;;;;;6238751;28;20245;-53
2022/12/20 00:44:43;;;;;;;25.50;18.83;;;4.10;1.00;;;;;;6231810;28;20246;-51
2022/12/20 00:47:46;;;;;;;27.03;18.47;;;4.10;1.00;;;;;;6238081;28;20295;-53
2022/12/20 00:50:49;;;;;;;26.10;19.07;;;4.40;1.00;;;;;;6254930;28;20249;-52
2022/12/20 00:53:53;;;;;;;27.43;17.23;;;4.20;1.00;;;;;;6256025;28;20257;-52
2022/12/20 00:56:56;;;;;;;25.67;18.67;;;4.20;1.00;;;;;;6253513;28;20359;-53
2022/12/20 01:00:00;;;;;;;22.30;17.80;;;4.30;1.00;;;;;;6230993;28;20501;-54
2022/12/20 01:03:03;;;;;;;22.17;17.27;;;4.30;1.00;;;;;;6235028;28;20242;-52
2022/12/20 01:06:07;;;;;;;24.37;16.83;;;4.40;1.00;;;;;;6255188;28;20321;-52
2022/12/20 01:09:11;;;;;;;24.27;17.23;;;4.30;1.00;;;;;;6253618;28;20364;-52
2022/12/20 01:12:14;;;;;;;26.00;18.13;;;4.40;1.00;;;;;;6231041;28;20246;-52
2022/12/20 01:15:20;;;;;;;23.33;17.20;;;4.30;1.00;;;;;;6231665;28;20696;-53
2022/12/20 01:18:23;;;;;;;24.03;17.63;;;4.30;1.00;;;;;;6230095;28;20646;-52
2022/12/20 01:21:27;;;;;;;21.53;16.97;;;4.30;1.00;;;;;;6239213;28;20233;-52
2022/12/20 01:24:30;;;;;;;21.67;17.20;;;4.10;1.00;;;;;;6254852;28;20264;-53
2022/12/20 01:27:33;;;;;;;22.67;17.30;;;4.50;1.00;;;;;;6254927;28;20238;-55
2022/12/20 01:30:42;;;;;;;19.83;16.73;;;4.40;1.00;;;;;;6242142;28;20242;-53
2022/12/20 01:33:46;;;;;;;24.30;18.57;;;4.50;1.00;;;;;;6257522;28;20329;-53
2022/12/20 01:36:50;;;;;;;22.47;17.37;;;4.50;1.00;;;;;;6254930;28;20323;-53
2022/12/20 01:39:53;;;;;;;23.23;17.13;;;4.20;1.00;;;;;;6252709;28;20234;-52
2022/12/20 01:42:55;;;;;;;20.90;16.57;;;4.40;1.00;;;;;;6260715;28;20237;-52
2022/12/20 01:46:00;;;;;;;22.47;17.27;;;4.60;1.00;;;;;;6262586;28;20251;-54
2022/12/20 01:49:09;;;;;;;21.53;15.63;;;4.40;1.00;;;;;;6263251;28;20246;-55
2022/12/20 01:52:16;;;;;;;20.53;16.37;;;4.60;1.00;;;;;;6259498;28;20238;-53
2022/12/20 01:55:22;;;;;;;19.13;16.17;;;4.60;1.00;;;;;;6218169;28;20319;-52
2022/12/20 01:58:25;;;;;;;20.33;16.23;;;4.20;1.00;;;;;;6213815;28;20230;-52
2022/12/20 02:01:30;;;;;;;19.23;15.67;;;4.40;1.00;;;;;;6235053;28;20262;-52
2022/12/20 02:04:33;;;;;;;22.17;17.17;;;4.70;1.00;;;;;;6226689;28;20780;-53
2022/12/20 02:07:38;;;;;;;23.50;16.93;;;4.10;1.00;;;;;;6229268;28;20357;-52
2022/12/20 02:10:54;;;;;;;24.97;17.00;;;4.50;1.00;;;;;;6234951;28;20254;-52
2022/12/20 02:14:09;;;;;;;22.50;17.23;;;4.20;1.00;;;;;;6223488;28;20623;-50
2022/12/20 02:17:23;;;;;;;21.23;15.70;;;4.20;1.00;;;;;;6214962;28;20377;-53
2022/12/20 02:20:53;;;;;;;21.67;16.67;;;4.40;1.00;;;;;;6213327;28;20247;-52
2022/12/20 02:24:35;;;;;;;22.10;16.87;;;4.10;1.00;;;;;;6226177;28;20457;-52
2022/12/20 02:27:48;;;;;;;23.03;17.57;;;4.20;1.00;;;;;;6218434;28;20227;-52
2022/12/20 02:30:55;;;;;;;20.97;16.23;;;4.20;1.00;;;;;;6236964;28;20246;-52
2022/12/20 02:34:00;;;;;;;19.87;15.93;;;4.30;1.00;;;;;;6246009;28;20230;-52
2022/12/20 02:37:03;;;;;;;24.30;16.60;;;4.40;1.00;;;;;;6256589;28;20258;-54
2022/12/20 02:40:08;;;;;;;22.50;17.57;;;4.60;1.00;;;;;;6224510;28;20249;-52
2022/12/20 02:46:32;;;;;;;22.53;16.67;;;4.30;1.00;;;;;;6223137;28;20238;-52
2022/12/20 02:49:40;;;;;;;19.47;15.67;;;4.60;1.00;;;;;;6225713;28;20255;-53
2022/12/20 02:52:43;;;;;;;21.47;16.93;;;4.50;1.00;;;;;;6208669;28;20250;-53
2022/12/20 02:55:50;;;;;;;21.87;16.30;;;4.50;1.00;;;;;;6209178;28;20235;-53
2022/12/20 02:58:58;;;;;;;19.00;15.17;;;4.60;1.00;;;;;;6217785;28;20247;-52
2022/12/20 03:02:03;;;;;;;21.17;14.67;;;4.80;1.00;;;;;;6226489;28;20797;-51
2022/12/20 03:05:07;;;;;;;18.33;15.33;;;4.80;1.00;;;;;;6227472;28;20235;-52
2022/12/20 03:08:10;;;;;;;18.43;16.27;;;4.80;1.00;;;;;;6231252;28;20246;-52
2022/12/20 03:11:13;;;;;;;21.60;15.83;;;4.90;1.00;;;;;;6233442;28;20325;-54
2022/12/20 03:14:16;;;;;;;20.10;15.53;;;4.90;1.00;;;;;;6233373;28;20246;-53
2022/12/20 03:17:20;;;;;;;20.87;16.17;;;4.80;1.00;;;;;;6233567;28;20783;-53
2022/12/20 03:20:24;;;;;;;19.97;16.10;;;4.90;1.00;;;;;;6231450;28;20735;-52
2022/12/20 03:23:27;;;;;;;19.53;15.53;;;4.90;1.00;;;;;;6233256;28;20242;-52
2022/12/20 03:26:30;;;;;;;18.20;15.53;;;5.10;1.00;;;;;;6232981;28;20246;-53
2022/12/20 03:29:33;;;;;;;17.43;15.03;;;5.00;1.00;;;;;;6218302;28;20670;-53
2022/12/20 03:32:38;;;;;;;22.83;15.80;;;5.00;1.00;;;;;;6232345;28;20241;-52
2022/12/20 03:35:41;;;;;;;17.80;15.90;;;5.00;1.00;;;;;;6232615;28;20249;-53
2022/12/20 03:38:44;;;;;;;19.00;15.17;;;4.90;1.00;;;;;;6225820;28;20242;-52
2022/12/20 03:41:46;;;;;;;19.43;14.53;;;4.90;1.00;;;;;;6210536;28;20265;-53
2022/12/20 03:44:49;;;;;;;21.30;14.37;;;5.00;1.00;;;;;;6208460;28;20253;-52
2022/12/20 03:47:54;;;;;;;16.47;14.77;;;5.20;1.00;;;;;;6217189;28;20250;-54
2022/12/20 03:50:57;;;;;;;23.23;16.20;;;5.10;1.00;;;;;;6232243;28;20256;-53
2022/12/20 03:54:00;;;;;;;17.73;15.23;;;5.30;1.00;;;;;;6232280;28;20272;-52
2022/12/20 03:57:03;;;;;;;17.67;14.80;;;5.00;1.00;;;;;;6209478;28;20258;-52
2022/12/20 04:00:07;;;;;;;17.47;15.57;;;5.10;1.00;;;;;;6206368;28;20235;-52
2022/12/20 04:03:11;;;;;;;17.67;15.73;;;5.10;1.00;;;;;;6222529;28;20235;-52
2022/12/20 04:06:15;;;;;;;18.77;14.93;;;4.90;1.00;;;;;;6228144;28;20340;-53
2022/12/20 04:09:18;;;;;;;17.13;15.33;;;5.00;1.00;;;;;;6220891;28;20245;-52
2022/12/20 04:12:21;;;;;;;20.47;16.00;;;5.00;1.00;;;;;;6224761;28;20638;-54
2022/12/20 04:15:24;;;;;;;18.43;14.87;;;5.00;1.00;;;;;;6207421;28;20239;-52
2022/12/20 04:18:29;;;;;;;20.93;15.93;;;4.80;1.00;;;;;;6207137;28;20635;-54
2022/12/20 04:21:34;;;;;;;21.23;15.33;;;5.00;1.00;;;;;;6206757;28;20242;-52
2022/12/20 04:24:37;;;;;;;18.13;15.03;;;5.10;1.00;;;;;;6225774;28;20604;-53
2022/12/20 04:27:40;;;;;;;18.53;14.70;;;5.00;1.00;;;;;;6231271;28;20331;-52
2022/12/20 04:30:43;;;;;;;16.63;14.10;;;4.90;1.00;;;;;;6234832;28;20249;-53
2022/12/20 04:33:48;;;;;;;17.43;14.90;;;5.10;1.00;;;;;;6219677;28;20336;-53
2022/12/20 04:36:51;;;;;;;17.10;14.83;;;5.10;1.00;;;;;;6236751;28;20238;-53
2022/12/20 04:39:55;;;;;;;16.77;14.60;;;5.00;1.00;;;;;;6234287;28;20281;-53
2022/12/20 04:42:58;;;;;;;18.07;14.30;;;4.70;1.00;;;;;;6231652;28;20242;-52
2022/12/20 04:46:01;;;;;;;17.90;15.80;;;5.00;1.00;;;;;;6227729;28;20258;-51
2022/12/20 04:49:05;;;;;;;17.37;14.87;;;4.90;1.00;;;;;;6229259;28;20333;-52
2022/12/20 04:55:25;;;;;;;19.63;15.20;;;4.80;1.00;;;;;;6223030;28;20242;-57
2022/12/20 04:58:28;;;;;;;18.80;15.23;;;4.80;1.00;;;;;;6225875;28;20246;-53
2022/12/20 05:01:31;;;;;;;17.57;14.73;;;4.70;1.00;;;;;;6229825;28;20249;-51
2022/12/20 05:04:36;;;;;;;18.77;14.47;;;4.90;1.00;;;;;;6222741;28;20241;-53
2022/12/20 05:07:39;;;;;;;23.50;15.90;;;4.70;1.00;;;;;;6223064;28;20239;-53
2022/12/20 05:10:42;;;;;;;19.50;15.60;;;4.80;1.00;;;;;;6226419;28;20716;-52
2022/12/20 05:13:45;;;;;;;18.37;15.63;;;4.80;1.00;;;;;;6229412;28;20226;-53
2022/12/20 05:16:48;;;;;;;18.07;15.37;;;4.90;1.00;;;;;;6224699;28;20808;-52
2022/12/20 05:19:53;;;;;;;19.30;15.37;;;4.90;1.00;;;;;;6226188;28;20239;-52
2022/12/20 05:26:19;;;;;;;19.83;15.53;;;4.80;1.00;;;;;;6232851;28;20235;-53
2022/12/20 05:29:22;;;;;;;18.03;15.10;;;4.90;1.00;;;;;;6232500;28;20231;-52
2022/12/20 05:32:25;;;;;;;19.17;15.40;;;4.90;1.00;;;;;;6234233;28;20242;-52
2022/12/20 05:35:29;;;;;;;18.53;15.87;;;4.80;1.00;;;;;;6232721;28;20730;-52
2022/12/20 05:38:32;;;;;;;18.40;15.90;;;5.00;1.00;;;;;;6233672;28;20253;-53
2022/12/20 05:41:35;;;;;;;20.70;15.03;;;4.90;1.00;;;;;;6226462;28;20448;-53
2022/12/20 05:44:38;;;;;;;18.27;15.27;;;4.60;1.00;;;;;;6227858;28;20243;-52
2022/12/20 05:47:41;;;;;;;19.70;15.37;;;4.90;1.00;;;;;;6231388;28;20250;-53
2022/12/20 05:50:46;;;;;;;16.83;15.03;;;4.90;1.00;;;;;;6234032;28;20226;-53
2022/12/20 05:53:49;;;;;;;17.27;14.53;;;5.20;1.00;;;;;;6230134;28;20235;-52
2022/12/20 05:56:52;;;;;;;20.63;15.50;;;5.00;1.00;;;;;;6233340;28;20246;-54
2022/12/20 05:59:55;;;;;;;17.77;15.77;;;5.00;1.00;;;;;;6231104;28;20494;-59
2022/12/20 06:02:58;;;;;;;18.53;15.70;;;4.90;1.00;;;;;;6233260;28;20234;-52
2022/12/20 06:06:03;;;;;;;17.77;15.60;;;5.00;1.00;;;;;;6229699;28;20284;-52
2022/12/20 06:09:13;;;;;;;19.17;15.20;;;5.00;1.00;;;;;;6230682;28;20280;-52
2022/12/20 06:12:16;;;;;;;19.20;14.93;;;5.00;1.00;;;;;;6232494;28;20324;-53
2022/12/20 06:15:19;;;;;;;19.17;15.97;;;5.00;1.00;;;;;;6232322;28;20245;-52
2022/12/20 06:18:22;;;;;;;19.33;16.57;;;5.20;1.00;;;;;;6231944;28;20511;-53
2022/12/20 06:21:27;;;;;;;19.80;17.33;;;5.40;1.00;;;;;;6233356;28;20249;-53
2022/12/20 06:24:30;;;;;;;20.87;16.03;;;5.10;1.00;;;;;;6229648;28;20735;-52
2022/12/20 06:27:33;;;;;;;17.93;15.13;;;5.30;1.00;;;;;;6233502;28;20235;-52
2022/12/20 06:30:36;;;;;;;18.10;15.30;;;5.30;1.00;;;;;;6231616;28;20235;-52
2022/12/20 06:33:39;;;;;;;18.63;15.03;;;5.30;1.00;;;;;;6238242;28;20428;-53
2022/12/20 06:36:43;;;;;;;17.00;14.90;;;5.40;1.00;;;;;;6233345;28;20230;-52
2022/12/20 06:39:46;;;;;;;18.13;14.70;;;5.30;1.00;;;;;;6234395;28;20823;-52
2022/12/20 06:42:49;;;;;;;17.63;15.73;;;5.20;1.00;;;;;;6233709;28;20237;-53
2022/12/20 06:45:52;;;;;;;18.83;15.77;;;5.30;1.00;;;;;;6240414;28;20246;-52
2022/12/20 06:48:56;;;;;;;21.47;16.87;;;5.40;1.00;;;;;;6230217;28;20239;-52
2022/12/20 06:52:00;;;;;;;18.80;16.80;;;5.30;1.00;;;;;;6234947;28;20246;-53
2022/12/20 06:55:04;;;;;;;20.67;17.77;;;5.10;1.00;;;;;;6242433;28;20237;-52
2022/12/20 06:58:07;;;;;;;22.13;17.13;;;5.00;1.00;;;;;;6232361;28;20238;-52
2022/12/20 07:01:10;;;;;;;25.00;18.03;;;5.20;1.00;;;;;;6230114;28;20249;-53
2022/12/20 07:04:13;;;;;;;22.03;17.27;;;5.40;1.00;;;;;;6235973;28;20238;-52
2022/12/20 07:07:17;;;;;;;19.70;17.60;;;5.40;1.00;;;;;;6226637;28;20246;-53
2022/12/20 07:10:20;;;;;;;22.23;17.83;;;5.50;1.00;;;;;;6232301;28;20245;-51
2022/12/20 07:13:23;;;;;;;21.53;17.33;;;5.30;1.00;;;;;;6235702;28;20242;-53
2022/12/20 07:16:28;;;;;;;21.87;17.93;;;5.50;1.00;;;;;;6238543;28;20238;-51
2022/12/20 07:19:31;;;;;;;21.73;17.17;;;5.40;1.00;;;;;;6219427;28;20262;-53
2022/12/20 07:22:35;;;;;;;24.20;17.40;;;5.30;1.00;;;;;;6229153;28;20746;-52
2022/12/20 07:25:38;;;;;;;22.13;17.80;;;5.30;1.00;;;;;;6232819;28;20250;-53
2022/12/20 07:28:42;;;;;;;23.63;17.67;;;5.50;1.00;;;;;;6232491;28;20261;-52
2022/12/20 07:31:45;;;;;;;23.93;18.03;;;5.30;1.00;;;;;;6230038;28;20265;-51
2022/12/20 07:34:48;;;;;;;25.60;18.27;;;5.60;1.00;;;;;;6247982;28;20477;-54
2022/12/20 07:37:53;;;;;;;24.57;19.13;;;5.50;1.00;;;;;;6249686;28;20238;-53
2022/12/20 07:40:56;;;;;;;24.93;18.30;;;5.20;1.00;;;;;;6235547;28;20672;-53
2022/12/20 07:43:59;;;;;;;24.93;18.43;;;5.40;1.00;;;;;;6237776;28;20266;-51
2022/12/20 07:47:02;;;;;;;24.47;19.13;;;5.30;1.00;;;;;;6229336;28;20246;-54
2022/12/20 07:50:07;;;;;;;24.43;18.57;;;5.40;1.00;;;;;;6236330;28;20241;-52
2022/12/20 07:53:11;;;;;;;29.50;19.97;;;5.40;1.00;;;;;;6233965;28;20235;-52
2022/12/20 07:56:16;;;;;;;28.33;19.77;;;5.40;1.00;;;;;;6232875;28;20441;-53
2022/12/20 07:59:22;;;;;;;28.83;20.40;;;5.50;1.00;;;;;;6231821;28;20447;-52
2022/12/20 08:02:28;;;;;;;29.17;19.23;;;5.50;1.00;;;;;;6239105;28;20261;-52
2022/12/20 08:05:33;;;;;;;26.90;20.20;;;5.50;1.00;;;;;;6223554;28;20247;-51
2022/12/20 08:08:41;;;;;;;31.87;20.57;;;5.60;1.00;;;;;;6223146;28;20723;-52
2022/12/20 08:11:47;;;;;;;31.07;20.90;;;5.50;1.00;;;;;;6228777;28;20649;-52
2022/12/20 08:14:54;;;;;;;24.27;20.00;;;5.50;1.00;;;;;;6231776;28;20230;-52
2022/12/20 08:17:58;;;;;;;25.63;20.07;;;5.80;1.00;;;;;;6224698;28;20249;-52
2022/12/20 08:21:01;;;;;;;27.10;20.50;;;5.60;1.00;;;;;;6221584;28;20226;-52
2022/12/20 08:24:07;;;;;;;27.73;19.87;;;5.60;1.00;;;;;;6225003;28;20315;-53
2022/12/20 08:27:10;;;;;;;23.93;19.00;;;5.60;1.00;;;;;;6222935;28;20707;-53
2022/12/20 08:30:13;;;;;;;27.77;20.87;;;5.60;1.00;;;;;;6229581;28;20234;-52
2022/12/20 08:33:16;;;;;;;26.50;19.93;;;5.60;1.00;;;;;;6225205;28;20241;-52
2022/12/20 08:36:19;;;;;;;31.90;20.63;;;5.60;1.00;;;;;;6226456;28;20487;-53
2022/12/20 08:39:24;;;;;;;25.23;19.50;;;5.60;1.00;;;;;;6229441;28;20234;-52
2022/12/20 08:42:27;;;;;;;33.63;22.93;;;5.70;1.00;;;;;;6221472;28;20504;-51
2022/12/20 08:45:31;;;;;;;31.27;21.80;;;5.70;1.00;;;;;;6228336;28;20226;-52
2022/12/20 08:48:34;;;;;;;27.13;21.17;;;5.60;1.00;;;;;;6229517;28;20628;-53
2022/12/20 08:51:37;;;;;;;26.17;21.10;;;5.60;1.00;;;;;;6234006;28;20785;-53
2022/12/20 08:54:41;;;;;;;25.47;20.30;;;5.70;1.00;;;;;;6232348;28;20226;-51
2022/12/20 08:57:44;;;;;;;27.10;19.90;;;5.80;1.00;;;;;;6235059;28;20237;-52
2022/12/20 09:00:47;;;;;;;29.73;20.30;;;5.80;1.00;;;;;;6228588;28;21087;-52
2022/12/20 09:03:50;;;;;;;32.07;21.80;;;6.00;1.00;;;;;;6227635;28;20241;-53
2022/12/20 09:06:53;;;;;;;27.37;20.43;;;6.00;1.00;;;;;;6233555;28;20245;-52
2022/12/20 09:09:58;;;;;;;25.87;20.13;;;6.20;1.00;;;;;;6231506;28;20244;-53
2022/12/20 09:13:01;;;;;;;26.73;20.10;;;6.00;1.00;;;;;;6229905;28;20234;-53
2022/12/20 09:16:06;;;;;;;26.40;20.50;;;6.30;1.00;;;;;;6233083;28;20258;-53
2022/12/20 09:19:12;;;;;;;27.27;19.87;;;6.20;1.00;;;;;;6225189;28;20239;-53
2022/12/20 09:22:15;;;;;;;28.50;20.20;;;6.20;1.00;;;;;;6224348;28;20497;-53
2022/12/20 09:25:20;;;;;;;24.40;18.57;;;6.20;1.00;;;;;;6231890;28;20238;-53
2022/12/20 09:28:23;;;;;;;26.73;18.67;;;6.20;1.00;;;;;;6234791;28;20256;-52
2022/12/20 09:31:26;;;;;;;22.17;18.03;;;6.50;1.00;;;;;;6233449;28;20262;-53
2022/12/20 09:34:29;;;;;;;26.23;18.60;;;6.30;1.00;;;;;;6233025;28;20377;-51
2022/12/20 09:37:33;;;;;;;31.17;19.40;;;6.50;1.00;;;;;;6233957;28;20240;-51
2022/12/20 09:40:38;;;;;;;26.30;19.87;;;6.60;1.00;;;;;;6235156;28;20261;-52
2022/12/20 09:43:41;;;;;;;29.60;19.00;;;6.50;1.00;;;;;;6230711;28;20227;-52
2022/12/20 09:46:45;;;;;;;29.27;20.17;;;6.80;1.00;;;;;;6232628;28;21042;-53
2022/12/20 09:49:51;;;;;;;24.17;18.50;;;6.70;1.00;;;;;;6231731;28;20325;-54
2022/12/20 09:53:08;;;;;;;26.57;18.03;;;6.90;1.00;;;;;;6229819;28;20782;-53
2022/12/20 09:56:26;;;;;;;24.13;19.03;;;6.90;1.00;;;;;;6232769;28;20751;-51
2022/12/20 09:59:29;;;;;;;22.00;17.80;;;7.00;1.00;;;;;;6231415;28;20238;-52
2022/12/20 10:02:40;;;;;;;22.17;17.77;;;7.10;1.00;;;;;;6248409;28;20230;-52
2022/12/20 10:06:10;;;;;;;27.03;17.93;;;7.10;1.00;;;;;;6255825;28;20657;-53
2022/12/20 10:09:28;;;;;;;23.20;17.23;;;7.10;1.00;;;;;;6253300;28;20281;-52
2022/12/20 10:12:42;;;;;;;23.50;18.40;;;7.20;1.00;;;;;;6255102;28;20411;-52
2022/12/20 10:15:51;;;;;;;21.40;17.43;;;7.40;1.00;;;;;;6257524;28;20615;-54
2022/12/20 10:19:02;;;;;;;19.30;16.13;;;7.20;1.00;;;;;;6250235;28;20246;-53
2022/12/20 10:22:11;;;;;;;21.33;16.63;;;7.30;1.00;;;;;;6249235;28;20869;-51
2022/12/20 10:25:18;;;;;;;19.77;15.57;;;7.30;1.00;;;;;;6250138;28;20242;-53
2022/12/20 10:28:27;;;;;;;22.57;17.40;;;7.20;1.00;;;;;;6255731;28;20404;-53
2022/12/20 10:31:30;;;;;;;21.50;16.90;;;7.40;1.00;;;;;;6256417;28;20252;-51
2022/12/20 10:34:33;;;;;;;19.93;16.10;;;7.20;1.00;;;;;;6254415;28;20237;-52
2022/12/20 10:37:57;;;;;;;21.43;17.43;;;7.20;1.00;;;;;;6255131;28;20754;-53
2022/12/20 10:41:19;;;;;;;23.87;17.77;;;7.20;1.00;;;;;;6249387;28;20230;-53
2022/12/20 10:44:28;;;;;;;23.33;16.20;;;7.20;1.00;;;;;;6212632;28;1128764;-52
2022/12/20 10:47:40;;;;;;;19.43;15.97;;;7.30;1.00;;;;;;6257464;28;20242;-53
2022/12/20 10:50:43;;;;;;;22.23;17.53;;;7.30;1.00;;;;;;6256885;28;20312;-53
2022/12/20 10:53:58;;;;;;;23.20;17.70;;;7.40;1.00;;;;;;6254176;28;20531;-53
2022/12/20 10:57:13;;;;;;;20.40;16.60;;;7.60;1.00;;;;;;6240876;28;20719;-53
2022/12/20 11:00:29;;;;;;;19.67;16.73;;;7.70;1.00;;;;;;6237680;28;20245;-53
2022/12/20 11:03:32;;;;;;;23.20;15.70;;;7.80;1.00;;;;;;6260210;28;20605;-52
2022/12/20 11:06:45;;;;;;;20.30;15.97;;;7.80;1.00;;;;;;6255085;28;20548;-52
2022/12/20 11:09:53;;;;;;;20.57;16.23;;;7.80;1.00;;;;;;6258500;28;20750;-53
2022/12/20 11:12:57;;;;;;;19.07;15.87;;;7.80;1.00;;;;;;6258002;28;20801;-53
2022/12/20 11:16:01;;;;;;;18.07;14.63;;;7.90;1.00;;;;;;6252348;28;20231;-56
2022/12/20 11:19:30;;;;;;;18.03;15.60;;;7.90;1.00;;;;;;6226413;28;20238;-52
2022/12/20 11:22:46;;;;;;;19.80;15.43;;;7.90;1.00;;;;;;6222121;28;20230;-53
2022/12/20 11:26:09;;;;;;;17.97;14.63;;;7.80;1.00;;;;;;6231987;28;20226;-54
2022/12/20 11:29:40;;;;;;;17.30;14.47;;;7.90;1.00;;;;;;6239190;28;20231;-52
2022/12/20 11:33:10;;;;;;;17.57;15.77;;;7.90;1.00;;;;;;6234578;28;20280;-53
2022/12/20 11:36:22;;;;;;;19.63;15.77;;;7.90;1.00;;;;;;6249018;28;20237;-56
2022/12/20 11:39:34;;;;;;;18.43;15.00;;;7.90;1.00;;;;;;6257182;28;20611;-53
2022/12/20 11:42:58;;;;;;;15.90;14.17;;;7.90;1.00;;;;;;6254244;28;20368;-53
2022/12/20 11:46:18;;;;;;;16.67;14.73;;;7.90;1.00;;;;;;6231344;28;20455;-53
2022/12/20 11:49:57;;;;;;;17.87;15.83;;;8.00;1.00;;;;;;6225850;28;20654;-53
2022/12/20 11:53:05;;;;;;;17.73;15.00;;;8.00;1.00;;;;;;6217896;28;20239;-53
2022/12/20 11:56:14;;;;;;;22.73;16.20;;;8.00;1.00;;;;;;6227189;28;20692;-53
2022/12/20 11:59:25;;;;;;;18.40;15.13;;;8.00;1.00;;;;;;6231277;28;20243;-53
2022/12/20 12:02:34;;;;;;;17.27;14.80;;;8.00;1.00;;;;;;6228409;28;20516;-52
2022/12/20 12:05:44;;;;;;;18.90;15.00;;;8.00;1.00;;;;;;6227341;28;20247;-52
2022/12/20 12:08:52;;;;;;;21.40;15.40;;;8.00;1.00;;;;;;6230895;28;20730;-54
2022/12/20 12:12:02;;;;;;;22.23;15.70;;;8.10;1.00;;;;;;6229776;28;20468;-53
2022/12/20 12:15:22;;;;;;;18.77;15.47;;;8.10;1.00;;;;;;6231588;28;20241;-53
2022/12/20 12:18:30;;;;;;;18.67;15.70;;;8.10;1.00;;;;;;6230021;28;20234;-53
2022/12/20 12:21:38;;;;;;;18.60;14.57;;;8.10;1.00;;;;;;6222756;28;20385;-53
2022/12/20 12:24:46;;;;;;;20.27;15.57;;;8.10;1.00;;;;;;6230116;28;20336;-52
2022/12/20 12:27:49;;;;;;;19.60;16.07;;;8.20;1.00;;;;;;6253952;28;20242;-52
2022/12/20 12:30:57;;;;;;;16.80;14.97;;;8.30;1.00;;;;;;6254357;28;20234;-52
2022/12/20 12:34:07;;;;;;;20.83;15.87;;;8.30;1.00;;;;;;6254928;28;20241;-53
2022/12/20 12:37:37;;;;;;;18.17;15.40;;;8.30;1.00;;;;;;6254453;28;20361;-53
2022/12/20 12:41:02;;;;;;;19.13;15.77;;;8.30;1.00;;;;;;6234369;28;20326;-53
2022/12/20 12:44:30;;;;;;;17.47;14.93;;;8.30;1.00;;;;;;6253180;28;20234;-53
2022/12/20 12:47:39;;;;;;;18.13;15.17;;;8.30;1.00;;;;;;6253473;28;20763;-54
2022/12/20 12:50:45;;;;;;;17.07;14.17;;;8.30;1.00;;;;;;6257904;28;20257;-53
2022/12/20 12:53:52;;;;;;;17.63;15.40;;;8.20;1.00;;;;;;6264696;28;20229;-53
2022/12/20 12:57:02;;;;;;;16.77;14.97;;;8.30;1.00;;;;;;6268334;28;20424;-52
2022/12/20 13:00:48;;;;;;;18.33;14.77;;;8.20;1.00;;;;;;6267604;28;20237;-52
2022/12/20 13:04:10;;;;;;;19.10;15.27;;;8.20;1.00;;;;;;6251841;28;20242;-52
2022/12/20 13:07:42;;;;;;;18.00;15.10;;;8.20;1.00;;;;;;6238527;28;20489;-53
2022/12/20 13:11:01;;;;;;;20.53;15.90;;;8.30;1.00;;;;;;6259146;28;20511;-51
2022/12/20 13:14:12;;;;;;;18.87;14.50;;;8.30;1.00;;;;;;6252087;28;20226;-53
2022/12/20 13:17:47;;;;;;;18.27;15.30;;;8.30;1.00;;;;;;6265665;28;20246;-52
2022/12/20 13:21:32;;;;;;;16.93;15.00;;;8.20;1.00;;;;;;6247244;28;20230;-51
2022/12/20 13:24:55;;;;;;;18.67;15.10;;;8.20;1.00;;;;;;6209502;28;20250;-56
2022/12/20 13:28:31;;;;;;;16.87;14.43;;;8.20;1.00;;;;;;6267804;28;20238;-53
2022/12/20 13:31:36;;;;;;;17.47;14.83;;;8.10;1.00;;;;;;6229576;28;20227;-52
2022/12/20 13:34:53;;;;;;;16.27;14.53;;;8.00;1.00;;;;;;6228845;28;20230;-52
2022/12/20 13:38:00;;;;;;;18.70;14.60;;;8.00;1.00;;;;;;6236918;28;20324;-52
2022/12/20 13:41:18;;;;;;;17.57;15.13;;;8.00;1.00;;;;;;6237246;28;20426;-53
2022/12/20 13:44:43;;;;;;;18.20;14.70;;;7.90;1.00;;;;;;6255492;28;20238;-53
2022/12/20 13:47:54;;;;;;;17.40;14.50;;;7.90;1.00;;;;;;6259573;28;20483;-52
2022/12/20 13:50:58;;;;;;;18.77;15.33;;;7.90;1.00;;;;;;6257257;28;20619;-52
2022/12/20 13:54:04;;;;;;;16.17;14.27;;;7.80;1.00;;;;;;6257741;28;20238;-53
2022/12/20 13:57:07;;;;;;;18.13;13.80;;;7.80;1.00;;;;;;6258031;28;20253;-53
2022/12/20 14:00:16;;;;;;;17.53;13.87;;;7.90;1.00;;;;;;6250925;28;20659;-52
2022/12/20 14:03:27;;;;;;;17.73;14.47;;;7.80;1.00;;;;;;6258160;28;20238;-54
2022/12/20 14:06:30;;;;;;;19.73;15.27;;;7.90;1.00;;;;;;6258546;28;20298;-53
2022/12/20 14:09:35;;;;;;;19.67;14.30;;;7.80;1.00;;;;;;6258401;28;20261;-52
2022/12/20 14:12:44;;;;;;;20.57;14.80;;;7.80;1.00;;;;;;6256764;28;20233;-52
2022/12/20 14:15:48;;;;;;;19.20;15.73;;;7.70;1.00;;;;;;6257936;28;20240;-53
2022/12/20 14:19:01;;;;;;;21.20;14.80;;;7.70;1.00;;;;;;6256966;28;20279;-53
2022/12/20 14:22:04;;;;;;;16.97;14.53;;;7.70;1.00;;;;;;6255311;28;20246;-52
2022/12/20 14:25:09;;;;;;;16.97;14.13;;;7.90;1.00;;;;;;6257203;28;20941;-54
2022/12/20 14:28:26;;;;;;;19.00;15.00;;;7.70;1.00;;;;;;6257920;28;20344;-54
2022/12/20 14:31:37;;;;;;;16.53;14.60;;;7.60;1.00;;;;;;6257962;28;20229;-52
2022/12/20 14:34:43;;;;;;;19.47;15.77;;;7.60;1.00;;;;;;6253730;28;20234;-52
2022/12/20 14:37:54;;;;;;;20.30;16.10;;;7.60;1.00;;;;;;6257188;28;20663;-53
2022/12/20 14:40:57;;;;;;;19.97;16.23;;;7.50;1.00;;;;;;6257481;28;20245;-53
2022/12/20 14:44:04;;;;;;;20.73;15.90;;;7.50;1.00;;;;;;6252502;28;20264;-52
2022/12/20 14:47:16;;;;;;;21.70;15.97;;;7.60;1.00;;;;;;6232611;28;20245;-53
2022/12/20 14:50:24;;;;;;;20.97;15.93;;;7.50;1.00;;;;;;6226860;28;20246;-52
2022/12/20 14:53:27;;;;;;;22.60;17.27;;;7.50;1.00;;;;;;6229069;28;20603;-53
2022/12/20 14:56:32;;;;;;;21.90;17.00;;;7.50;1.00;;;;;;6232412;28;20234;-53
2022/12/20 14:59:35;;;;;;;23.00;16.20;;;7.50;1.00;;;;;;6230228;28;20238;-52
2022/12/20 15:02:41;;;;;;;18.90;15.37;;;7.40;1.00;;;;;;6223651;28;20232;-53
2022/12/20 15:05:51;;;;;;;18.63;16.17;;;7.40;1.00;;;;;;6232062;28;20778;-52
2022/12/20 15:08:54;;;;;;;18.77;15.87;;;7.40;1.00;;;;;;6250522;28;20698;-58
2022/12/20 15:11:58;;;;;;;22.20;16.73;;;7.40;1.00;;;;;;6257691;28;20237;-53
2022/12/20 15:15:01;;;;;;;21.53;16.80;;;7.30;1.00;;;;;;6257302;28;20737;-52
2022/12/20 15:18:24;;;;;;;24.97;17.00;;;7.30;1.00;;;;;;6252298;28;20261;-52
2022/12/20 15:21:32;;;;;;;20.13;16.93;;;7.30;1.00;;;;;;6254745;28;20276;-52
2022/12/20 15:24:35;;;;;;;23.43;16.33;;;7.20;1.00;;;;;;6225181;28;20685;-53
2022/12/20 15:27:38;;;;;;;25.03;17.87;;;7.70;1.00;;;;;;6228443;28;20420;-53
2022/12/20 15:30:41;;;;;;;24.27;16.67;;;7.40;1.00;;;;;;6232436;28;20253;-54
2022/12/20 15:33:46;;;;;;;24.90;18.50;;;7.40;1.00;;;;;;6227135;28;20343;-52
2022/12/20 15:36:50;;;;;;;22.13;16.77;;;7.40;1.00;;;;;;6232114;28;20242;-52
2022/12/20 15:39:54;;;;;;;22.43;16.83;;;7.30;1.00;;;;;;6231925;28;20234;-53
2022/12/20 15:42:57;;;;;;;23.53;16.70;;;7.40;1.00;;;;;;6228438;28;20656;-53
2022/12/20 15:46:00;;;;;;;20.20;16.63;;;7.30;1.00;;;;;;6231530;28;20238;-53
2022/12/20 15:49:03;;;;;;;24.73;17.87;;;7.20;1.00;;;;;;6230666;28;20242;-51
2022/12/20 15:52:19;;;;;;;22.23;16.97;;;7.20;1.00;;;;;;6220233;28;20626;-53
2022/12/20 15:55:22;;;;;;;21.43;16.90;;;7.20;1.00;;;;;;6233259;28;20612;-53
2022/12/20 15:58:25;;;;;;;24.20;18.30;;;7.20;1.00;;;;;;6230703;28;20238;-52
2022/12/20 16:01:34;;;;;;;20.50;16.53;;;7.20;1.00;;;;;;6229257;28;20239;-52
2022/12/20 16:04:43;;;;;;;23.30;17.97;;;7.40;1.00;;;;;;6231454;28;20258;-54
2022/12/20 16:07:47;;;;;;;22.07;17.10;;;7.30;1.00;;;;;;6231214;28;20839;-53
2022/12/20 16:10:52;;;;;;;24.07;18.10;;;7.10;1.00;;;;;;6226796;28;20231;-52
2022/12/20 16:13:56;;;;;;;23.07;16.43;;;7.10;1.00;;;;;;6231532;28;20242;-54
2022/12/20 16:16:59;;;;;;;23.20;17.00;;;7.30;1.00;;;;;;6223938;28;20234;-53
2022/12/20 16:20:02;;;;;;;25.13;18.07;;;7.20;1.00;;;;;;6226377;28;20250;-53
2022/12/20 16:23:15;;;;;;;23.00;18.93;;;7.20;1.00;;;;;;6217699;28;20249;-55
2022/12/20 16:26:20;;;;;;;25.53;18.37;;;7.20;1.00;;;;;;6230056;28;20238;-51